Time;durP1;ratioP1;P1;durP2;ratioP2;P2;SDS_P1;SDS_P2;PMS_P1;PMS_P2;Temp;Humidity;BMP_temperature;BMP_pressure;BME280_temperature;BME280_humidity;BME280_pressure;Samples;Min_cycle;Max_cycle;Signal;HPM_P1;HPM_P2
2021/12/04 00:00:31;;;;;;;;;;;;;;;;;;5061160;28;19920;-69
2021/12/04 00:02:57;;;;;;;;;;;;;;;;;;5057582;28;19913;-69
2021/12/04 00:05:23;;;;;;;;;;;;;;;;;;5059296;28;19939;-71
2021/12/04 00:07:49;;;;;;;;;;;;;;;;;;5062651;28;20045;-69
2021/12/04 00:10:21;;;;;;;;;;;;;;;;;;5058986;28;19924;-70
2021/12/04 00:12:47;;;;;;;;;;;;;;;;;;5050275;28;19921;-70
2021/12/04 00:15:13;;;;;;;;;;;;;;;;;;5059009;28;19916;-69
2021/12/04 00:17:39;;;;;;;;;;;;;;;;;;5059849;28;19916;-70
2021/12/04 00:20:05;;;;;;;;;;;;;;;;;;5057812;28;20213;-69
2021/12/04 00:22:31;;;;;;;;;;;;;;;;;;5057601;28;19927;-69
2021/12/04 00:24:57;;;;;;;;;;;;;;;;;;5055640;28;19917;-70
2021/12/04 00:27:23;;;;;;;;;;;;;;;;;;5058960;28;19999;-71
2021/12/04 00:29:49;;;;;;;;;;;;;;;;;;5063479;28;19913;-69
2021/12/04 00:32:25;;;;;;;;;;;;;;;;;;5066323;28;19943;-69
2021/12/04 00:34:56;;;;;;;;;;;;;;;;;;5060761;28;19917;-69
2021/12/04 00:51:06;;;;;;;;;;;;;;;;;;5057327;28;19947;-70
2021/12/04 00:53:32;;;;;;;;;;;;;;;;;;5057804;28;20391;-70
2021/12/04 00:55:58;;;;;;;;;;;;;;;;;;5057622;28;19912;-69
2021/12/04 00:58:24;;;;;;;;;;;;;;;;;;5066080;28;19916;-69
2021/12/04 01:00:50;;;;;;;;;;;;;;;;;;5053945;28;19912;-69
2021/12/04 01:03:16;;;;;;;;;;;;;;;;;;5055127;28;19919;-69
2021/12/04 01:05:42;;;;;;;;;;;;;;;;;;5059281;28;20535;-69
2021/12/04 01:08:07;;;;;;;;;;;;;;;;;;5059584;28;20027;-69
2021/12/04 01:10:35;;;;;;;;;;;;;;;;;;5057033;28;19978;-69
2021/12/04 01:13:04;;;;;;;;;;;;;;;;;;5067508;28;19928;-70
2021/12/04 01:15:30;;;;;;;;;;;;;;;;;;5060910;28;19912;-69
2021/12/04 01:17:55;;;;;;;;;;;;;;;;;;5061752;28;19913;-69
2021/12/04 01:20:21;;;;;;;;;;;;;;;;;;5049064;28;19948;-71
2021/12/04 01:22:47;;;;;;;;;;;;;;;;;;5050828;28;19917;-69
2021/12/04 01:25:13;;;;;;;;;;;;;;;;;;5049811;28;20391;-70
2021/12/04 01:27:39;;;;;;;;;;;;;;;;;;5054416;28;19916;-70
2021/12/04 01:30:05;;;;;;;;;;;;;;;;;;5066605;28;19927;-70
2021/12/04 01:32:31;;;;;;;;;;;;;;;;;;5054809;28;20478;-70
2021/12/04 01:34:57;;;;;;;;;;;;;;;;;;5061337;28;19966;-70
2021/12/04 01:37:23;;;;;;;;;;;;;;;;;;5049940;28;19913;-71
2021/12/04 01:39:48;;;;;;;;;;;;;;;;;;5049852;28;19917;-69
2021/12/04 01:42:14;;;;;;;;;;;;;;;;;;5056471;28;20008;-70
2021/12/04 01:44:40;;;;;;;;;;;;;;;;;;5062891;28;19920;-70
2021/12/04 01:47:06;;;;;;;;;;;;;;;;;;5057353;28;19996;-70
2021/12/04 01:49:32;;;;;;;;;;;;;;;;;;5058080;28;20137;-69
2021/12/04 01:51:58;;;;;;;;;;;;;;;;;;5058155;28;20035;-69
2021/12/04 01:54:23;;;;;;;;;;;;;;;;;;5065171;28;20809;-69
2021/12/04 01:56:49;;;;;;;;;;;;;;;;;;5052835;28;19913;-70
2021/12/04 01:59:15;;;;;;;;;;;;;;;;;;5063880;28;19916;-70
2021/12/04 02:01:41;;;;;;;;;;;;;;;;;;5051353;28;19959;-70
2021/12/04 02:04:07;;;;;;;;;;;;;;;;;;5051852;28;19917;-69
2021/12/04 02:06:33;;;;;;;;;;;;;;;;;;5054985;28;20006;-69
2021/12/04 02:08:59;;;;;;;;;;;;;;;;;;5053578;28;19959;-70
2021/12/04 02:11:25;;;;;;;;;;;;;;;;;;5051983;28;19929;-69
2021/12/04 02:13:51;;;;;;;;;;;;;;;;;;5066103;28;19916;-69
2021/12/04 02:16:17;;;;;;;;;;;;;;;;;;5061006;28;19962;-70
2021/12/04 02:18:42;;;;;;;;;;;;;;;;;;5062273;28;19913;-69
2021/12/04 02:21:08;;;;;;;;;;;;;;;;;;5050381;28;20492;-69
2021/12/04 02:23:34;;;;;;;;;;;;;;;;;;5057347;28;19916;-69
2021/12/04 02:26:00;;;;;;;;;;;;;;;;;;5060659;28;19923;-70
2021/12/04 02:28:26;;;;;;;;;;;;;;;;;;5064387;28;19920;-69
2021/12/04 02:30:52;;;;;;;;;;;;;;;;;;5064726;28;19916;-71
2021/12/04 02:33:18;;;;;;;;;;;;;;;;;;5054813;28;20606;-69
2021/12/04 02:35:45;;;;;;;;;;;;;;;;;;5058545;28;19921;-69
2021/12/04 02:38:11;;;;;;;;;;;;;;;;;;5065486;28;20348;-69
2021/12/04 02:40:37;;;;;;;;;;;;;;;;;;5059819;28;19917;-69
2021/12/04 02:43:03;;;;;;;;;;;;;;;;;;5055127;28;19917;-70
2021/12/04 02:45:29;;;;;;;;;;;;;;;;;;5062935;28;19963;-70
2021/12/04 02:47:54;;;;;;;;;;;;;;;;;;5065309;28;20614;-69
2021/12/04 02:50:20;;;;;;;;;;;;;;;;;;5058811;28;19913;-70
2021/12/04 02:52:46;;;;;;;;;;;;;;;;;;5052958;28;20002;-70
2021/12/04 02:55:12;;;;;;;;;;;;;;;;;;5061693;28;19912;-69
2021/12/04 02:57:43;;;;;;;;;;;;;;;;;;5062782;28;19970;-69
2021/12/04 03:00:10;;;;;;;;;;;;;;;;;;5061879;28;19917;-71
2021/12/04 03:02:36;;;;;;;;;;;;;;;;;;5055551;28;20591;-69
2021/12/04 03:05:06;;;;;;;;;;;;;;;;;;5059880;28;19999;-70
2021/12/04 03:07:32;;;;;;;;;;;;;;;;;;5056397;28;19951;-69
2021/12/04 03:09:58;;;;;;;;;;;;;;;;;;5061638;28;19955;-70
2021/12/04 03:12:24;;;;;;;;;;;;;;;;;;5058233;28;19921;-69
2021/12/04 03:14:50;;;;;;;;;;;;;;;;;;5060035;28;20376;-69
2021/12/04 03:17:19;;;;;;;;;;;;;;;;;;5060825;28;19947;-69
2021/12/04 03:19:44;;;;;;;;;;;;;;;;;;5059526;28;19916;-69
2021/12/04 03:22:11;;;;;;;;;;;;;;;;;;5066198;28;19920;-69
2021/12/04 03:24:40;;;;;;;;;;;;;;;;;;5055272;28;19939;-70
2021/12/04 03:27:06;;;;;;;;;;;;;;;;;;5058906;28;19962;-71
2021/12/04 03:29:35;;;;;;;;;;;;;;;;;;5062919;28;19916;-70
2021/12/04 03:42:59;;;;;;;;;;;;;;;;;;5051619;28;19918;-69
2021/12/04 03:45:25;;;;;;;;;;;;;;;;;;5062944;28;20302;-69
2021/12/04 03:47:55;;;;;;;;;;;;;;;;;;5056065;28;19912;-70
2021/12/04 03:50:21;;;;;;;;;;;;;;;;;;5056712;28;19958;-70
2021/12/04 03:52:47;;;;;;;;;;;;;;;;;;5061476;28;20256;-69
2021/12/04 03:55:13;;;;;;;;;;;;;;;;;;5058143;28;19919;-69
2021/12/04 03:57:44;;;;;;;;;;;;;;;;;;5064951;28;19920;-70
2021/12/04 04:00:10;;;;;;;;;;;;;;;;;;5067489;28;20316;-68
2021/12/04 04:02:36;;;;;;;;;;;;;;;;;;5065649;28;19965;-70
2021/12/04 04:05:02;;;;;;;;;;;;;;;;;;5059354;28;20520;-69
2021/12/04 04:07:27;;;;;;;;;;;;;;;;;;5065780;28;19914;-69
2021/12/04 04:09:53;;;;;;;;;;;;;;;;;;5064644;28;19913;-69
2021/12/04 04:12:19;;;;;;;;;;;;;;;;;;5060103;28;19924;-70
2021/12/04 04:14:45;;;;;;;;;;;;;;;;;;5058876;28;19917;-69
2021/12/04 04:17:11;;;;;;;;;;;;;;;;;;5060469;28;19917;-69
2021/12/04 04:19:37;;;;;;;;;;;;;;;;;;5057440;28;19912;-71
2021/12/04 04:22:03;;;;;;;;;;;;;;;;;;5057688;28;19920;-71
2021/12/04 04:24:29;;;;;;;;;;;;;;;;;;5059739;28;19959;-71
2021/12/04 04:26:55;;;;;;;;;;;;;;;;;;5056906;28;19913;-70
2021/12/04 04:29:21;;;;;;;;;;;;;;;;;;5061503;28;19967;-69
2021/12/04 04:31:48;;;;;;;;;;;;;;;;;;5053606;28;19924;-70
2021/12/04 04:34:20;;;;;;;;;;;;;;;;;;5056144;28;19913;-70
2021/12/04 04:36:58;;;;;;;;;;;;;;;;;;5057828;28;19912;-69
2021/12/04 05:12:26;;;;;;;;;;;;;;;;;;5060233;28;20013;-69
2021/12/04 05:15:01;;;;;;;;;;;;;;;;;;5061546;28;19993;-70
2021/12/04 05:17:31;;;;;;;;;;;;;;;;;;5050279;28;19936;-69
2021/12/04 05:19:57;;;;;;;;;;;;;;;;;;5059004;28;19943;-69
2021/12/04 05:22:23;;;;;;;;;;;;;;;;;;5060505;28;19956;-69
2021/12/04 05:24:49;;;;;;;;;;;;;;;;;;5056416;28;20355;-69
2021/12/04 05:27:15;;;;;;;;;;;;;;;;;;5058755;28;19916;-69
2021/12/04 05:29:41;;;;;;;;;;;;;;;;;;5048779;28;19917;-70
2021/12/04 05:32:07;;;;;;;;;;;;;;;;;;5065080;28;19962;-69
2021/12/04 05:34:33;;;;;;;;;;;;;;;;;;5056402;28;19913;-69
2021/12/04 05:36:58;;;;;;;;;;;;;;;;;;5054764;28;19921;-69
2021/12/04 05:39:24;;;;;;;;;;;;;;;;;;5050288;28;20333;-69
2021/12/04 05:41:51;;;;;;;;;;;;;;;;;;5052533;28;19916;-70
2021/12/04 05:44:19;;;;;;;;;;;;;;;;;;5055563;28;20010;-69
2021/12/04 05:46:53;;;;;;;;;;;;;;;;;;5054866;28;19917;-69
2021/12/04 05:49:24;;;;;;;;;;;;;;;;;;5050804;28;19912;-69
2021/12/04 05:52:05;;;;;;;;;;;;;;;;;;5057631;28;20007;-70
2021/12/04 05:57:06;;;;;;;;;;;;;;;;;;5054764;28;19920;-71
2021/12/04 05:59:32;;;;;;;;;;;;;;;;;;5049820;28;19928;-69
2021/12/04 06:01:58;;;;;;;;;;;;;;;;;;5058082;28;19923;-69
2021/12/04 06:04:24;;;;;;;;;;;;;;;;;;5058709;28;19912;-69
2021/12/04 06:06:50;;;;;;;;;;;;;;;;;;5065575;28;19917;-70
2021/12/04 06:09:17;;;;;;;;;;;;;;;;;;5063019;28;19920;-69
2021/12/04 06:11:43;;;;;;;;;;;;;;;;;;5054087;28;20555;-70
2021/12/04 06:14:08;;;;;;;;;;;;;;;;;;5053699;28;19913;-69
2021/12/04 06:16:34;;;;;;;;;;;;;;;;;;5058177;28;19924;-69
2021/12/04 06:19:10;;;;;;;;;;;;;;;;;;5059494;28;19919;-70
2021/12/04 06:24:21;;;;;;;;;;;;;;;;;;5048854;28;19919;-70
2021/12/04 06:26:46;;;;;;;;;;;;;;;;;;5057706;28;20539;-70
2021/12/04 06:29:14;;;;;;;;;;;;;;;;;;5061194;28;19927;-69
2021/12/04 06:31:40;;;;;;;;;;;;;;;;;;5053482;28;20429;-69
2021/12/04 06:34:05;;;;;;;;;;;;;;;;;;5057894;28;19912;-69
2021/12/04 06:36:31;;;;;;;;;;;;;;;;;;5054653;28;19920;-70
2021/12/04 06:38:57;;;;;;;;;;;;;;;;;;5065550;28;19913;-70
2021/12/04 06:41:23;;;;;;;;;;;;;;;;;;5056970;28;20024;-70
2021/12/04 06:43:51;;;;;;;;;;;;;;;;;;5051843;28;19913;-69
2021/12/04 06:46:17;;;;;;;;;;;;;;;;;;5064067;28;19934;-70
2021/12/04 06:51:37;;;;;;;;;;;;;;;;;;5055707;28;19946;-70
2021/12/04 06:56:37;;;;;;;;;;;;;;;;;;5050886;28;19921;-69
2021/12/04 06:59:15;;;;;;;;;;;;;;;;;;5054010;28;20307;-69
2021/12/04 07:01:41;;;;;;;;;;;;;;;;;;5055381;28;19917;-70
2021/12/04 07:04:07;;;;;;;;;;;;;;;;;;5054831;28;19912;-70
2021/12/04 07:06:33;;;;;;;;;;;;;;;;;;5053462;28;19916;-69
2021/12/04 07:08:59;;;;;;;;;;;;;;;;;;5050453;28;19913;-71
2021/12/04 07:11:24;;;;;;;;;;;;;;;;;;5060900;28;20674;-70
2021/12/04 07:13:50;;;;;;;;;;;;;;;;;;5048413;28;19913;-69
2021/12/04 07:16:18;;;;;;;;;;;;;;;;;;5065798;28;19918;-70
2021/12/04 07:18:44;;;;;;;;;;;;;;;;;;5054391;28;20054;-69
2021/12/04 07:21:10;;;;;;;;;;;;;;;;;;5051918;28;20616;-70
2021/12/04 07:23:37;;;;;;;;;;;;;;;;;;5049222;28;20044;-70
2021/12/04 07:26:03;;;;;;;;;;;;;;;;;;5062957;28;19921;-70
2021/12/04 07:28:29;;;;;;;;;;;;;;;;;;5054398;28;20451;-70
2021/12/04 07:30:55;;;;;;;;;;;;;;;;;;5052133;28;19921;-69
2021/12/04 07:33:21;;;;;;;;;;;;;;;;;;5063175;28;19916;-69
2021/12/04 07:35:46;;;;;;;;;;;;;;;;;;5053802;28;20323;-69
2021/12/04 07:38:14;;;;;;;;;;;;;;;;;;5060818;28;19919;-69
2021/12/04 07:40:39;;;;;;;;;;;;;;;;;;5069011;28;19958;-69
2021/12/04 07:43:05;;;;;;;;;;;;;;;;;;5053422;28;20533;-69
2021/12/04 07:45:31;;;;;;;;;;;;;;;;;;5052164;28;19952;-69
2021/12/04 07:47:57;;;;;;;;;;;;;;;;;;5055630;28;19913;-69
2021/12/04 07:50:23;;;;;;;;;;;;;;;;;;5056682;28;19913;-70
2021/12/04 07:52:49;;;;;;;;;;;;;;;;;;5051660;28;20543;-69
2021/12/04 07:55:15;;;;;;;;;;;;;;;;;;5055767;28;19928;-69
2021/12/04 07:57:41;;;;;;;;;;;;;;;;;;5052515;28;20822;-70
2021/12/04 08:00:07;;;;;;;;;;;;;;;;;;5056973;28;19927;-70
2021/12/04 08:02:33;;;;;;;;;;;;;;;;;;5056735;28;19919;-69
2021/12/04 08:04:58;;;;;;;;;;;;;;;;;;5054840;28;19952;-69
2021/12/04 08:07:24;;;;;;;;;;;;;;;;;;5052860;28;19924;-69
2021/12/04 08:09:50;;;;;;;;;;;;;;;;;;5057850;28;20859;-69
2021/12/04 08:12:16;;;;;;;;;;;;;;;;;;5052418;28;19921;-70
2021/12/04 08:14:42;;;;;;;;;;;;;;;;;;5052125;28;20020;-69
2021/12/04 08:17:08;;;;;;;;;;;;;;;;;;5065239;28;19913;-69
2021/12/04 08:19:34;;;;;;;;;;;;;;;;;;5053661;28;19936;-70
2021/12/04 08:22:00;;;;;;;;;;;;;;;;;;5053468;28;19916;-71
2021/12/04 08:24:25;;;;;;;;;;;;;;;;;;5060823;28;19920;-70
2021/12/04 08:26:51;;;;;;;;;;;;;;;;;;5061530;28;19974;-69
2021/12/04 08:29:17;;;;;;;;;;;;;;;;;;5054354;28;19912;-69
2021/12/04 08:31:43;;;;;;;;;;;;;;;;;;5060296;28;19916;-69
2021/12/04 08:34:10;;;;;;;;;;;;;;;;;;5057390;28;20322;-70
2021/12/04 08:36:36;;;;;;;;;;;;;;;;;;5068247;28;20604;-70
2021/12/04 08:39:02;;;;;;;;;;;;;;;;;;5058731;28;19913;-69
2021/12/04 08:41:27;;;;;;;;;;;;;;;;;;5053158;28;20421;-69
2021/12/04 08:43:54;;;;;;;;;;;;;;;;;;5062550;28;19913;-71
2021/12/04 08:46:20;;;;;;;;;;;;;;;;;;5053006;28;19920;-71
2021/12/04 08:48:46;;;;;;;;;;;;;;;;;;5052622;28;19917;-70
2021/12/04 08:51:12;;;;;;;;;;;;;;;;;;5064326;28;19912;-69
2021/12/04 08:53:38;;;;;;;;;;;;;;;;;;5053027;28;20082;-69
2021/12/04 08:56:04;;;;;;;;;;;;;;;;;;5054761;28;20287;-69
2021/12/04 08:58:30;;;;;;;;;;;;;;;;;;5057569;28;19912;-70
2021/12/04 09:00:56;;;;;;;;;;;;;;;;;;5060603;28;19913;-69
2021/12/04 09:03:22;;;;;;;;;;;;;;;;;;5056363;28;19913;-70
2021/12/04 09:05:50;;;;;;;;;;;;;;;;;;5058014;28;20798;-70
2021/12/04 09:08:16;;;;;;;;;;;;;;;;;;5053582;28;19919;-72
2021/12/04 09:10:43;;;;;;;;;;;;;;;;;;5057136;28;19999;-70
2021/12/04 09:13:08;;;;;;;;;;;;;;;;;;5055498;28;19928;-70
2021/12/04 09:15:35;;;;;;;;;;;;;;;;;;5059813;28;20594;-71
2021/12/04 09:18:01;;;;;;;;;;;;;;;;;;5064276;28;19970;-70
2021/12/04 09:20:31;;;;;;;;;;;;;;;;;;5048190;28;19916;-70
2021/12/04 09:22:57;;;;;;;;;;;;;;;;;;5057606;28;19967;-70
2021/12/04 09:25:25;;;;;;;;;;;;;;;;;;5053064;28;19962;-70
2021/12/04 09:59:16;;;;;;;;;;;;;;;;;;5051939;28;19935;-69
2021/12/04 10:00:51;;;;;;;;;;;;;;;;;;5055618;28;19970;-70
2021/12/04 10:06:17;;;;;;;;;;;;;;;;;;5060849;28;19970;-71
2021/12/04 10:18:04;;;;;;;;;;;;;;;;;;5059711;28;19943;-71
2021/12/04 10:20:12;;;;;;;;;;;;;;;;;;5052158;28;19932;-69
2021/12/04 10:22:46;;;;;;;;;;;;;;;;;;5049602;28;19920;-70
2021/12/04 10:32:02;;;;;;;;;;;;;;;;;;5061172;28;19920;-69
2021/12/04 10:33:27;;;;;;;;;;;;;;;;;;5064233;28;19939;-71
2021/12/04 10:35:53;;;;;;;;;;;;;;;;;;5051062;28;19913;-70
2021/12/04 10:38:19;;;;;;;;;;;;;;;;;;5050689;28;20412;-71
2021/12/04 10:40:47;;;;;;;;;;;;;;;;;;5061563;28;19923;-69
2021/12/04 10:43:14;;;;;;;;;;;;;;;;;;5066337;28;19962;-69
2021/12/04 10:45:41;;;;;;;;;;;;;;;;;;5050044;28;19974;-70
2021/12/04 10:48:08;;;;;;;;;;;;;;;;;;5058116;28;19913;-70
2021/12/04 10:53:11;;;;;;;;;;;;;;;;;;5058290;28;19920;-69
2021/12/04 11:03:17;;;;;;;;;;;;;;;;;;5050422;28;19913;-69
2021/12/04 11:06:15;;;;;;;;;;;;;;;;;;5050235;28;20345;-70
2021/12/04 11:22:18;;;;;;;;;;;;;;;;;;5059192;28;19920;-69
2021/12/04 11:36:09;;;;;;;;;;;;;;;;;;5062572;28;19966;-70
2021/12/04 11:38:29;;;;;;;;;;;;;;;;;;5060585;28;20008;-69
2021/12/04 11:43:53;;;;;;;;;;;;;;;;;;5059395;28;20490;-70
2021/12/04 11:46:22;;;;;;;;;;;;;;;;;;5053937;28;20257;-71
2021/12/04 11:48:48;;;;;;;;;;;;;;;;;;5067732;28;19913;-70
2021/12/04 11:51:13;;;;;;;;;;;;;;;;;;5062811;28;19966;-70
2021/12/04 11:53:41;;;;;;;;;;;;;;;;;;5051017;28;20312;-69
2021/12/04 11:56:07;;;;;;;;;;;;;;;;;;5061221;28;19913;-69
2021/12/04 11:58:32;;;;;;;;;;;;;;;;;;5060502;28;19913;-70
2021/12/04 12:00:58;;;;;;;;;;;;;;;;;;5061277;28;19966;-68
2021/12/04 12:03:24;;;;;;;;;;;;;;;;;;5061439;28;19912;-68
2021/12/04 12:05:50;;;;;;;;;;;;;;;;;;5058923;28;19921;-69
2021/12/04 12:08:16;;;;;;;;;;;;;;;;;;5061927;28;20007;-69
2021/12/04 12:10:42;;;;;;;;;;;;;;;;;;5059166;28;20011;-69
2021/12/04 12:13:08;;;;;;;;;;;;;;;;;;5066435;28;19917;-68
2021/12/04 12:15:35;;;;;;;;;;;;;;;;;;5053902;28;19952;-70
2021/12/04 12:18:00;;;;;;;;;;;;;;;;;;5052972;28;19913;-70
2021/12/04 12:20:26;;;;;;;;;;;;;;;;;;5048559;28;19951;-71
2021/12/04 12:22:57;;;;;;;;;;;;;;;;;;5059245;28;20011;-71
2021/12/04 12:25:31;;;;;;;;;;;;;;;;;;5057281;28;20548;-70
2021/12/04 12:33:59;;;;;;;;;;;;;;;;;;5064734;28;19966;-70
2021/12/04 12:36:25;;;;;;;;;;;;;;;;;;5054315;28;19924;-71
2021/12/04 12:38:52;;;;;;;;;;;;;;;;;;5061680;28;20528;-70
2021/12/04 12:41:17;;;;;;;;;;;;;;;;;;5058862;28;20397;-71
2021/12/04 12:43:43;;;;;;;;;;;;;;;;;;5053461;28;20003;-71
2021/12/04 12:46:09;;;;;;;;;;;;;;;;;;5063812;28;19920;-74
2021/12/04 12:48:35;;;;;;;;;;;;;;;;;;5064600;28;19920;-73
2021/12/04 12:51:01;;;;;;;;;;;;;;;;;;5054792;28;19959;-74
2021/12/04 12:53:27;;;;;;;;;;;;;;;;;;5066968;28;20046;-73
2021/12/04 12:55:55;;;;;;;;;;;;;;;;;;5061822;28;19923;-72
2021/12/04 12:58:21;;;;;;;;;;;;;;;;;;5050647;28;19924;-75
2021/12/04 13:11:48;;;;;;;;;;;;;;;;;;5065325;28;20000;-74
2021/12/04 13:14:14;;;;;;;;;;;;;;;;;;5052442;28;19917;-73
2021/12/04 13:16:42;;;;;;;;;;;;;;;;;;5050664;28;19912;-75
2021/12/04 13:19:11;;;;;;;;;;;;;;;;;;5054930;28;19977;-74
2021/12/04 13:21:38;;;;;;;;;;;;;;;;;;5051781;28;19995;-72
2021/12/04 13:24:04;;;;;;;;;;;;;;;;;;5062731;28;19920;-74
2021/12/04 13:26:30;;;;;;;;;;;;;;;;;;5054362;28;19951;-73
2021/12/04 13:28:58;;;;;;;;;;;;;;;;;;5058204;28;19913;-75
2021/12/04 13:31:24;;;;;;;;;;;;;;;;;;5064625;28;19917;-74
2021/12/04 13:33:49;;;;;;;;;;;;;;;;;;5055331;28;20073;-74
2021/12/04 13:36:15;;;;;;;;;;;;;;;;;;5062661;28;19916;-74
2021/12/04 13:38:41;;;;;;;;;;;;;;;;;;5056954;28;19952;-74
2021/12/04 13:41:07;;;;;;;;;;;;;;;;;;5047744;28;19945;-74
2021/12/04 13:43:33;;;;;;;;;;;;;;;;;;5051849;28;19913;-75
2021/12/04 13:45:59;;;;;;;;;;;;;;;;;;5061365;28;20267;-75
2021/12/04 13:48:25;;;;;;;;;;;;;;;;;;5049835;28;19927;-76
2021/12/04 13:50:51;;;;;;;;;;;;;;;;;;5052663;28;19916;-75
2021/12/04 13:53:17;;;;;;;;;;;;;;;;;;5053494;28;19917;-74
2021/12/04 13:55:43;;;;;;;;;;;;;;;;;;5050153;28;19966;-77
2021/12/04 13:58:09;;;;;;;;;;;;;;;;;;5052268;28;19977;-75
2021/12/04 14:00:35;;;;;;;;;;;;;;;;;;5063881;28;19924;-76
2021/12/04 14:03:00;;;;;;;;;;;;;;;;;;5061218;28;20010;-76
2021/12/04 14:05:26;;;;;;;;;;;;;;;;;;5058829;28;19913;-74
2021/12/04 14:07:53;;;;;;;;;;;;;;;;;;5072525;28;19927;-74
2021/12/04 14:10:19;;;;;;;;;;;;;;;;;;5056890;28;20000;-74
2021/12/04 14:12:45;;;;;;;;;;;;;;;;;;5066047;28;20023;-74
2021/12/04 14:15:11;;;;;;;;;;;;;;;;;;5062295;28;20450;-75
2021/12/04 14:17:37;;;;;;;;;;;;;;;;;;5058881;28;20539;-75
2021/12/04 14:20:03;;;;;;;;;;;;;;;;;;5051587;28;19912;-74
2021/12/04 14:22:28;;;;;;;;;;;;;;;;;;5055334;28;19974;-73
2021/12/04 14:24:57;;;;;;;;;;;;;;;;;;5061253;28;20326;-74
2021/12/04 14:27:23;;;;;;;;;;;;;;;;;;5060191;28;19944;-74
2021/12/04 14:29:48;;;;;;;;;;;;;;;;;;5058513;28;19948;-76
2021/12/04 14:32:16;;;;;;;;;;;;;;;;;;5063288;28;19969;-75
2021/12/04 14:34:42;;;;;;;;;;;;;;;;;;5058398;28;19966;-74
2021/12/04 14:37:11;;;;;;;;;;;;;;;;;;5066661;28;19920;-74
2021/12/04 14:39:36;;;;;;;;;;;;;;;;;;5057561;28;19912;-74
2021/12/04 14:42:02;;;;;;;;;;;;;;;;;;5063076;28;19935;-74
2021/12/04 14:44:28;;;;;;;;;;;;;;;;;;5056581;28;20361;-74
2021/12/04 14:46:54;;;;;;;;;;;;;;;;;;5052986;28;19917;-74
2021/12/04 14:49:20;;;;;;;;;;;;;;;;;;5059564;28;19931;-73
2021/12/04 14:51:46;;;;;;;;;;;;;;;;;;5053177;28;20415;-74
2021/12/04 14:54:12;;;;;;;;;;;;;;;;;;5060422;28;19927;-75
2021/12/04 14:56:38;;;;;;;;;;;;;;;;;;5055973;28;19916;-74
2021/12/04 14:59:04;;;;;;;;;;;;;;;;;;5053882;28;19920;-74
2021/12/04 15:01:33;;;;;;;;;;;;;;;;;;5054001;28;19994;-74
2021/12/04 15:04:00;;;;;;;;;;;;;;;;;;5059762;28;19912;-74
2021/12/04 15:06:26;;;;;;;;;;;;;;;;;;5056705;28;19924;-74
2021/12/04 15:08:52;;;;;;;;;;;;;;;;;;5053055;28;20528;-73
2021/12/04 15:11:19;;;;;;;;;;;;;;;;;;5062829;28;19935;-74
2021/12/04 15:13:53;;;;;;;;;;;;;;;;;;5056312;28;20051;-75
2021/12/04 15:16:24;;;;;;;;;;;;;;;;;;5070191;28;19998;-74
2021/12/04 15:18:49;;;;;;;;;;;;;;;;;;5052532;28;19921;-73
2021/12/04 15:21:17;;;;;;;;;;;;;;;;;;5052760;28;19912;-75
2021/12/04 15:23:44;;;;;;;;;;;;;;;;;;5051340;28;19912;-75
2021/12/04 15:26:10;;;;;;;;;;;;;;;;;;5057160;28;19912;-74
2021/12/04 15:28:36;;;;;;;;;;;;;;;;;;5056108;28;19909;-74
2021/12/04 15:31:03;;;;;;;;;;;;;;;;;;5054018;28;20295;-75
2021/12/04 15:33:29;;;;;;;;;;;;;;;;;;5069010;28;19916;-75
2021/12/04 15:35:55;;;;;;;;;;;;;;;;;;5064065;28;19917;-74
2021/12/04 15:38:32;;;;;;;;;;;;;;;;;;5073245;28;19909;-74
2021/12/04 15:43:36;;;;;;;;;;;;;;;;;;5065330;28;19956;-74
2021/12/04 15:46:12;;;;;;;;;;;;;;;;;;5053885;28;19967;-73
2021/12/04 15:53:56;;;;;;;;;;;;;;;;;;5053028;28;19923;-76
2021/12/04 15:56:22;;;;;;;;;;;;;;;;;;5059397;28;19955;-75
2021/12/04 15:58:48;;;;;;;;;;;;;;;;;;5058659;28;19924;-75
2021/12/04 16:01:13;;;;;;;;;;;;;;;;;;5063087;28;19966;-75
2021/12/04 16:03:39;;;;;;;;;;;;;;;;;;5052404;28;20506;-75
2021/12/04 16:06:11;;;;;;;;;;;;;;;;;;5061660;28;19982;-75
2021/12/04 16:08:37;;;;;;;;;;;;;;;;;;5058786;28;19952;-75
2021/12/04 16:11:02;;;;;;;;;;;;;;;;;;5064828;28;19956;-75
2021/12/04 16:13:30;;;;;;;;;;;;;;;;;;5060546;28;19920;-75
2021/12/04 16:15:59;;;;;;;;;;;;;;;;;;5053198;28;19916;-75
2021/12/04 16:18:25;;;;;;;;;;;;;;;;;;5066784;28;19964;-75
2021/12/04 16:20:51;;;;;;;;;;;;;;;;;;5056283;28;20480;-75
2021/12/04 16:23:17;;;;;;;;;;;;;;;;;;5057953;28;19912;-75
2021/12/04 16:25:43;;;;;;;;;;;;;;;;;;5061379;28;19955;-75
2021/12/04 16:30:55;;;;;;;;;;;;;;;;;;5053877;28;20011;-74
2021/12/04 16:38:15;;;;;;;;;;;;;;;;;;5059140;28;19962;-75
2021/12/04 16:40:41;;;;;;;;;;;;;;;;;;5055860;28;20403;-75
2021/12/04 16:43:09;;;;;;;;;;;;;;;;;;5058178;28;19912;-75
2021/12/04 16:45:35;;;;;;;;;;;;;;;;;;5049688;28;19968;-74
2021/12/04 16:48:05;;;;;;;;;;;;;;;;;;5049574;28;19955;-75
2021/12/04 16:50:43;;;;;;;;;;;;;;;;;;5049882;28;20577;-76
2021/12/04 16:56:16;;;;;;;;;;;;;;;;;;5050892;28;20023;-74
2021/12/04 16:58:44;;;;;;;;;;;;;;;;;;5048787;28;19999;-74
2021/12/04 17:01:10;;;;;;;;;;;;;;;;;;5053814;28;19923;-75
2021/12/04 17:03:36;;;;;;;;;;;;;;;;;;5053933;28;19912;-74
2021/12/04 17:06:02;;;;;;;;;;;;;;;;;;5056050;28;19920;-74
2021/12/04 17:08:27;;;;;;;;;;;;;;;;;;5057467;28;19951;-74
2021/12/04 17:10:53;;;;;;;;;;;;;;;;;;5063802;28;19931;-76
2021/12/04 17:13:19;;;;;;;;;;;;;;;;;;5051403;28;20273;-75
2021/12/04 17:15:49;;;;;;;;;;;;;;;;;;5061281;28;19966;-75
2021/12/04 17:18:16;;;;;;;;;;;;;;;;;;5056073;28;20408;-75
2021/12/04 17:20:42;;;;;;;;;;;;;;;;;;5057290;28;19921;-75
2021/12/04 17:23:08;;;;;;;;;;;;;;;;;;5053801;28;19917;-75
2021/12/04 17:25:36;;;;;;;;;;;;;;;;;;5053193;28;19920;-75
2021/12/04 17:28:02;;;;;;;;;;;;;;;;;;5057457;28;19913;-74
2021/12/04 17:30:28;;;;;;;;;;;;;;;;;;5054142;28;19936;-75
2021/12/04 17:32:54;;;;;;;;;;;;;;;;;;5055476;28;20516;-74
2021/12/04 17:35:20;;;;;;;;;;;;;;;;;;5058025;28;19999;-75
2021/12/04 17:37:46;;;;;;;;;;;;;;;;;;5060136;28;19920;-75
2021/12/04 17:40:12;;;;;;;;;;;;;;;;;;5074180;28;20857;-77
2021/12/04 17:42:38;;;;;;;;;;;;;;;;;;5052135;28;19916;-75
2021/12/04 17:45:04;;;;;;;;;;;;;;;;;;5063524;28;20393;-76
2021/12/04 17:47:31;;;;;;;;;;;;;;;;;;5057725;28;19912;-76
2021/12/04 17:50:00;;;;;;;;;;;;;;;;;;5053878;28;20007;-75
2021/12/04 17:52:26;;;;;;;;;;;;;;;;;;5052188;28;19916;-77
2021/12/04 17:54:52;;;;;;;;;;;;;;;;;;5055275;28;20462;-76
2021/12/04 17:57:18;;;;;;;;;;;;;;;;;;5056115;28;20003;-75
2021/12/04 17:59:45;;;;;;;;;;;;;;;;;;5055233;28;19917;-73
2021/12/04 18:02:11;;;;;;;;;;;;;;;;;;5052495;28;20000;-75
2021/12/04 18:04:37;;;;;;;;;;;;;;;;;;5057877;28;20004;-75
2021/12/04 18:07:03;;;;;;;;;;;;;;;;;;5057233;28;19944;-75
2021/12/04 18:09:33;;;;;;;;;;;;;;;;;;5050788;28;19913;-73
2021/12/04 18:11:59;;;;;;;;;;;;;;;;;;5060415;28;19966;-79
2021/12/04 18:14:25;;;;;;;;;;;;;;;;;;5051288;28;20575;-77
2021/12/04 18:16:51;;;;;;;;;;;;;;;;;;5054836;28;19928;-74
2021/12/04 18:19:17;;;;;;;;;;;;;;;;;;5051915;28;19917;-75
2021/12/04 18:21:44;;;;;;;;;;;;;;;;;;5057919;28;19947;-74
2021/12/04 18:24:10;;;;;;;;;;;;;;;;;;5053845;28;19917;-77
2021/12/04 18:26:36;;;;;;;;;;;;;;;;;;5049577;28;20364;-74
2021/12/04 18:29:02;;;;;;;;;;;;;;;;;;5056128;28;19991;-74
2021/12/04 18:31:28;;;;;;;;;;;;;;;;;;5055861;28;19978;-75
2021/12/04 18:33:55;;;;;;;;;;;;;;;;;;5050591;28;19967;-73
2021/12/04 18:36:21;;;;;;;;;;;;;;;;;;5049055;28;20542;-74
2021/12/04 18:38:46;;;;;;;;;;;;;;;;;;5055374;28;19920;-75
2021/12/04 18:41:12;;;;;;;;;;;;;;;;;;5057161;28;19925;-75
2021/12/04 18:43:43;;;;;;;;;;;;;;;;;;5050519;28;19972;-75
2021/12/04 18:46:09;;;;;;;;;;;;;;;;;;5053688;28;19919;-74
2021/12/04 18:48:36;;;;;;;;;;;;;;;;;;5053071;28;19920;-75
2021/12/04 18:51:02;;;;;;;;;;;;;;;;;;5047710;28;19921;-75
2021/12/04 18:53:28;;;;;;;;;;;;;;;;;;5051609;28;19917;-75
2021/12/04 18:55:54;;;;;;;;;;;;;;;;;;5056524;28;19913;-76
2021/12/04 18:58:20;;;;;;;;;;;;;;;;;;5059506;28;19959;-75
2021/12/04 19:00:46;;;;;;;;;;;;;;;;;;5054757;28;20442;-74
2021/12/04 19:03:12;;;;;;;;;;;;;;;;;;5047728;28;19970;-74
2021/12/04 19:05:38;;;;;;;;;;;;;;;;;;5059717;28;20318;-74
2021/12/04 19:08:04;;;;;;;;;;;;;;;;;;5050312;28;19917;-75
2021/12/04 19:10:30;;;;;;;;;;;;;;;;;;5048474;28;19912;-75
2021/12/04 19:12:58;;;;;;;;;;;;;;;;;;5063979;28;20720;-76
2021/12/04 19:15:24;;;;;;;;;;;;;;;;;;5059823;28;20353;-76
2021/12/04 19:17:50;;;;;;;;;;;;;;;;;;5058096;28;19919;-76
2021/12/04 19:20:16;;;;;;;;;;;;;;;;;;5057271;28;19939;-75
2021/12/04 19:22:42;;;;;;;;;;;;;;;;;;5055848;28;20714;-74
2021/12/04 19:25:08;;;;;;;;;;;;;;;;;;5057248;28;19916;-74
2021/12/04 19:27:34;;;;;;;;;;;;;;;;;;5067773;28;19912;-76
2021/12/04 19:30:00;;;;;;;;;;;;;;;;;;5060903;28;19913;-76
2021/12/04 19:32:30;;;;;;;;;;;;;;;;;;5051684;28;20372;-75
2021/12/04 19:49:00;;;;;;;;;;;;;;;;;;5055066;28;19920;-76
2021/12/04 19:51:26;;;;;;;;;;;;;;;;;;5064543;28;20302;-75
2021/12/04 19:56:36;;;;;;;;;;;;;;;;;;5063896;28;19977;-75
2021/12/04 19:59:02;;;;;;;;;;;;;;;;;;5048771;28;20367;-76
2021/12/04 20:04:16;;;;;;;;;;;;;;;;;;5051904;28;19986;-76
2021/12/04 20:09:17;;;;;;;;;;;;;;;;;;5060225;28;20014;-76
2021/12/04 20:14:27;;;;;;;;;;;;;;;;;;5055875;28;19924;-75
2021/12/04 20:16:53;;;;;;;;;;;;;;;;;;5050149;28;19917;-76